sensor_id;sensor_type;location;lat;lon;timestamp;temperature;humidity
7447;DHT22;3765;47.962;7.952;2023-10-08T00:01:37;11.30;69.70
7447;DHT22;3765;47.962;7.952;2023-10-08T00:04:09;11.30;69.80
7447;DHT22;3765;47.962;7.952;2023-10-08T00:06:38;11.20;70.00
7447;DHT22;3765;47.962;7.952;2023-10-08T00:09:07;11.30;70.00
7447;DHT22;3765;47.962;7.952;2023-10-08T00:11:38;11.30;70.00
7447;DHT22;3765;47.962;7.952;2023-10-08T00:14:07;11.30;69.90
7447;DHT22;3765;47.962;7.952;2023-10-08T00:16:37;11.30;69.90
7447;DHT22;3765;47.962;7.952;2023-10-08T00:19:07;11.30;69.80
7447;DHT22;3765;47.962;7.952;2023-10-08T00:21:41;11.30;69.80
7447;DHT22;3765;47.962;7.952;2023-10-08T00:24:12;11.30;69.90
7447;DHT22;3765;47.962;7.952;2023-10-08T00:26:41;11.30;70.00
7447;DHT22;3765;47.962;7.952;2023-10-08T00:29:10;11.30;70.00
7447;DHT22;3765;47.962;7.952;2023-10-08T00:31:48;11.20;70.10
7447;DHT22;3765;47.962;7.952;2023-10-08T00:34:18;11.30;70.20
7447;DHT22;3765;47.962;7.952;2023-10-08T00:36:48;11.30;70.10
7447;DHT22;3765;47.962;7.952;2023-10-08T00:39:16;11.30;70.10
7447;DHT22;3765;47.962;7.952;2023-10-08T00:41:52;11.20;70.20
7447;DHT22;3765;47.962;7.952;2023-10-08T00:44:26;11.20;70.10
7447;DHT22;3765;47.962;7.952;2023-10-08T00:46:58;11.10;70.40
7447;DHT22;3765;47.962;7.952;2023-10-08T00:49:28;11.10;70.40
7447;DHT22;3765;47.962;7.952;2023-10-08T00:52:15;11.10;70.50
7447;DHT22;3765;47.962;7.952;2023-10-08T00:54:57;11.00;70.60
7447;DHT22;3765;47.962;7.952;2023-10-08T00:57:37;10.90;70.80
7447;DHT22;3765;47.962;7.952;2023-10-08T01:00:13;11.00;70.80
7447;DHT22;3765;47.962;7.952;2023-10-08T01:02:49;11.00;70.80
7447;DHT22;3765;47.962;7.952;2023-10-08T01:05:27;10.90;70.90
7447;DHT22;3765;47.962;7.952;2023-10-08T01:08:15;10.90;71.00
7447;DHT22;3765;47.962;7.952;2023-10-08T01:10:50;11.00;71.00
7447;DHT22;3765;47.962;7.952;2023-10-08T01:13:31;11.00;71.10
7447;DHT22;3765;47.962;7.952;2023-10-08T01:16:11;10.90;71.10
7447;DHT22;3765;47.962;7.952;2023-10-08T01:18:40;10.90;71.20
7447;DHT22;3765;47.962;7.952;2023-10-08T01:21:17;10.90;71.20
7447;DHT22;3765;47.962;7.952;2023-10-08T01:24:03;10.90;71.30
7447;DHT22;3765;47.962;7.952;2023-10-08T01:26:33;10.80;71.20
7447;DHT22;3765;47.962;7.952;2023-10-08T01:29:09;10.80;71.30
7447;DHT22;3765;47.962;7.952;2023-10-08T01:31:39;10.90;71.20
7447;DHT22;3765;47.962;7.952;2023-10-08T01:34:08;10.90;71.10
7447;DHT22;3765;47.962;7.952;2023-10-08T01:36:42;10.90;71.10
7447;DHT22;3765;47.962;7.952;2023-10-08T01:39:12;10.90;71.00
7447;DHT22;3765;47.962;7.952;2023-10-08T01:41:43;10.90;71.10
7447;DHT22;3765;47.962;7.952;2023-10-08T01:44:13;10.90;71.10
7447;DHT22;3765;47.962;7.952;2023-10-08T01:46:43;10.90;71.10
7447;DHT22;3765;47.962;7.952;2023-10-08T01:49:12;10.90;71.30
7447;DHT22;3765;47.962;7.952;2023-10-08T01:51:42;10.90;71.40
7447;DHT22;3765;47.962;7.952;2023-10-08T01:54:15;10.90;71.50
7447;DHT22;3765;47.962;7.952;2023-10-08T01:56:45;10.80;71.60
7447;DHT22;3765;47.962;7.952;2023-10-08T01:59:14;10.90;71.60
7447;DHT22;3765;47.962;7.952;2023-10-08T02:01:44;10.90;71.60
7447;DHT22;3765;47.962;7.952;2023-10-08T02:04:13;10.80;71.70
7447;DHT22;3765;47.962;7.952;2023-10-08T02:06:44;10.80;71.90
7447;DHT22;3765;47.962;7.952;2023-10-08T02:09:15;10.80;71.90
7447;DHT22;3765;47.962;7.952;2023-10-08T02:11:47;10.80;72.00
7447;DHT22;3765;47.962;7.952;2023-10-08T02:14:17;10.70;72.20
7447;DHT22;3765;47.962;7.952;2023-10-08T02:16:47;10.80;72.20
7447;DHT22;3765;47.962;7.952;2023-10-08T02:19:15;10.80;72.20
7447;DHT22;3765;47.962;7.952;2023-10-08T02:21:55;10.80;72.30
7447;DHT22;3765;47.962;7.952;2023-10-08T02:24:26;10.80;72.20
7447;DHT22;3765;47.962;7.952;2023-10-08T02:26:57;10.70;72.30
7447;DHT22;3765;47.962;7.952;2023-10-08T02:29:28;10.70;72.30
7447;DHT22;3765;47.962;7.952;2023-10-08T02:31:57;10.70;72.20
7447;DHT22;3765;47.962;7.952;2023-10-08T02:34:26;10.50;72.40
7447;DHT22;3765;47.962;7.952;2023-10-08T02:36:54;10.60;72.60
7447;DHT22;3765;47.962;7.952;2023-10-08T02:39:23;10.70;72.60
7447;DHT22;3765;47.962;7.952;2023-10-08T02:41:54;10.70;72.50
7447;DHT22;3765;47.962;7.952;2023-10-08T02:44:26;10.80;72.40
7447;DHT22;3765;47.962;7.952;2023-10-08T02:46:55;10.80;72.40
7447;DHT22;3765;47.962;7.952;2023-10-08T02:49:23;10.80;72.40
7447;DHT22;3765;47.962;7.952;2023-10-08T02:51:52;10.80;72.40
7447;DHT22;3765;47.962;7.952;2023-10-08T02:54:22;10.80;72.50
7447;DHT22;3765;47.962;7.952;2023-10-08T02:57:00;10.80;72.60
7447;DHT22;3765;47.962;7.952;2023-10-08T02:59:32;10.70;72.60
7447;DHT22;3765;47.962;7.952;2023-10-08T03:02:07;10.70;72.80
7447;DHT22;3765;47.962;7.952;2023-10-08T03:04:41;10.70;72.80
7447;DHT22;3765;47.962;7.952;2023-10-08T03:07:12;10.70;72.80
7447;DHT22;3765;47.962;7.952;2023-10-08T03:09:49;10.70;72.80
7447;DHT22;3765;47.962;7.952;2023-10-08T03:12:19;10.60;72.90
7447;DHT22;3765;47.962;7.952;2023-10-08T03:14:51;10.70;72.80
7447;DHT22;3765;47.962;7.952;2023-10-08T03:17:40;10.70;72.80
7447;DHT22;3765;47.962;7.952;2023-10-08T03:20:16;10.60;72.80
7447;DHT22;3765;47.962;7.952;2023-10-08T03:23:05;10.70;72.90
7447;DHT22;3765;47.962;7.952;2023-10-08T03:25:40;10.70;72.80
7447;DHT22;3765;47.962;7.952;2023-10-08T03:28:11;10.70;72.90
7447;DHT22;3765;47.962;7.952;2023-10-08T03:30:40;10.70;72.90
7447;DHT22;3765;47.962;7.952;2023-10-08T03:33:17;10.60;72.90
7447;DHT22;3765;47.962;7.952;2023-10-08T03:35:51;10.60;73.00
7447;DHT22;3765;47.962;7.952;2023-10-08T03:38:22;10.60;73.00
7447;DHT22;3765;47.962;7.952;2023-10-08T03:41:07;10.60;73.10
7447;DHT22;3765;47.962;7.952;2023-10-08T03:43:37;10.60;73.10
7447;DHT22;3765;47.962;7.952;2023-10-08T03:46:14;10.60;73.00
7447;DHT22;3765;47.962;7.952;2023-10-08T03:48:43;10.60;73.10
7447;DHT22;3765;47.962;7.952;2023-10-08T03:51:12;10.60;73.20
7447;DHT22;3765;47.962;7.952;2023-10-08T03:53:41;10.50;73.20
7447;DHT22;3765;47.962;7.952;2023-10-08T03:56:26;10.60;73.30
7447;DHT22;3765;47.962;7.952;2023-10-08T03:58:58;10.60;73.40
7447;DHT22;3765;47.962;7.952;2023-10-08T04:01:28;10.50;73.30
7447;DHT22;3765;47.962;7.952;2023-10-08T04:04:00;10.50;73.40
7447;DHT22;3765;47.962;7.952;2023-10-08T04:06:28;10.60;73.50
7447;DHT22;3765;47.962;7.952;2023-10-08T04:09:00;10.50;73.40
7447;DHT22;3765;47.962;7.952;2023-10-08T04:11:43;10.60;73.60
7447;DHT22;3765;47.962;7.952;2023-10-08T04:14:24;10.60;73.50
7447;DHT22;3765;47.962;7.952;2023-10-08T04:16:52;10.60;73.50
7447;DHT22;3765;47.962;7.952;2023-10-08T04:19:23;10.60;73.50
7447;DHT22;3765;47.962;7.952;2023-10-08T04:21:54;10.60;73.50
7447;DHT22;3765;47.962;7.952;2023-10-08T04:24:23;10.60;73.60
7447;DHT22;3765;47.962;7.952;2023-10-08T04:27:02;10.50;73.60
7447;DHT22;3765;47.962;7.952;2023-10-08T04:29:34;10.50;73.80
7447;DHT22;3765;47.962;7.952;2023-10-08T04:32:04;10.50;73.80
7447;DHT22;3765;47.962;7.952;2023-10-08T04:34:39;10.50;73.90
7447;DHT22;3765;47.962;7.952;2023-10-08T04:37:13;10.40;74.00
7447;DHT22;3765;47.962;7.952;2023-10-08T04:39:46;10.40;73.90
7447;DHT22;3765;47.962;7.952;2023-10-08T04:42:21;10.40;73.90
7447;DHT22;3765;47.962;7.952;2023-10-08T04:44:55;10.40;74.00
7447;DHT22;3765;47.962;7.952;2023-10-08T04:47:25;10.40;74.10
7447;DHT22;3765;47.962;7.952;2023-10-08T04:50:00;10.40;74.10
7447;DHT22;3765;47.962;7.952;2023-10-08T04:52:31;10.50;74.10
7447;DHT22;3765;47.962;7.952;2023-10-08T04:55:01;10.50;74.10
7447;DHT22;3765;47.962;7.952;2023-10-08T04:57:40;10.50;74.00
7447;DHT22;3765;47.962;7.952;2023-10-08T05:00:12;10.40;74.10
7447;DHT22;3765;47.962;7.952;2023-10-08T05:02:42;10.40;74.10
7447;DHT22;3765;47.962;7.952;2023-10-08T05:05:17;10.40;74.10
7447;DHT22;3765;47.962;7.952;2023-10-08T05:07:56;10.40;74.20
7447;DHT22;3765;47.962;7.952;2023-10-08T05:10:42;10.50;74.30
7447;DHT22;3765;47.962;7.952;2023-10-08T05:13:28;10.40;74.30
7447;DHT22;3765;47.962;7.952;2023-10-08T05:16:13;10.50;74.20
7447;DHT22;3765;47.962;7.952;2023-10-08T05:19:03;10.50;74.20
7447;DHT22;3765;47.962;7.952;2023-10-08T05:22:04;10.60;74.20
7447;DHT22;3765;47.962;7.952;2023-10-08T05:24:45;10.70;74.10
7447;DHT22;3765;47.962;7.952;2023-10-08T05:27:35;10.70;74.00
7447;DHT22;3765;47.962;7.952;2023-10-08T05:30:25;10.80;73.90
7447;DHT22;3765;47.962;7.952;2023-10-08T05:33:07;10.80;73.90
7447;DHT22;3765;47.962;7.952;2023-10-08T05:35:51;10.80;74.00
7447;DHT22;3765;47.962;7.952;2023-10-08T05:38:30;10.80;74.00
7447;DHT22;3765;47.962;7.952;2023-10-08T05:41:16;10.80;74.10
7447;DHT22;3765;47.962;7.952;2023-10-08T05:44:06;10.60;74.10
7447;DHT22;3765;47.962;7.952;2023-10-08T05:46:51;10.60;74.20
7447;DHT22;3765;47.962;7.952;2023-10-08T05:49:35;10.50;74.40
7447;DHT22;3765;47.962;7.952;2023-10-08T05:52:21;10.50;74.50
7447;DHT22;3765;47.962;7.952;2023-10-08T05:55:08;10.50;74.60
7447;DHT22;3765;47.962;7.952;2023-10-08T05:57:53;10.50;74.60
7447;DHT22;3765;47.962;7.952;2023-10-08T06:00:41;10.60;74.60
7447;DHT22;3765;47.962;7.952;2023-10-08T06:03:32;10.60;74.50
7447;DHT22;3765;47.962;7.952;2023-10-08T06:06:07;10.60;74.60
7447;DHT22;3765;47.962;7.952;2023-10-08T06:09:04;10.70;74.60
7447;DHT22;3765;47.962;7.952;2023-10-08T06:11:48;10.80;74.50
7447;DHT22;3765;47.962;7.952;2023-10-08T06:14:46;10.80;74.50
7447;DHT22;3765;47.962;7.952;2023-10-08T06:17:31;10.80;74.50
7447;DHT22;3765;47.962;7.952;2023-10-08T06:20:25;10.90;74.50
7447;DHT22;3765;47.962;7.952;2023-10-08T06:22:55;11.00;74.60
7447;DHT22;3765;47.962;7.952;2023-10-08T06:25:34;11.00;74.40
7447;DHT22;3765;47.962;7.952;2023-10-08T06:28:13;11.20;74.50
7447;DHT22;3765;47.962;7.952;2023-10-08T06:30:42;11.20;74.40
7447;DHT22;3765;47.962;7.952;2023-10-08T06:33:13;11.30;74.30
7447;DHT22;3765;47.962;7.952;2023-10-08T06:35:42;11.30;74.30
7447;DHT22;3765;47.962;7.952;2023-10-08T06:38:13;11.50;74.20
7447;DHT22;3765;47.962;7.952;2023-10-08T06:40:45;11.50;74.30
7447;DHT22;3765;47.962;7.952;2023-10-08T06:43:15;11.60;74.20
7447;DHT22;3765;47.962;7.952;2023-10-08T06:45:44;11.80;74.20
7447;DHT22;3765;47.962;7.952;2023-10-08T06:48:14;11.90;74.00
7447;DHT22;3765;47.962;7.952;2023-10-08T06:50:48;12.00;73.80
7447;DHT22;3765;47.962;7.952;2023-10-08T06:53:18;12.10;73.70
7447;DHT22;3765;47.962;7.952;2023-10-08T06:55:48;12.30;73.70
7447;DHT22;3765;47.962;7.952;2023-10-08T06:58:23;12.30;73.50
7447;DHT22;3765;47.962;7.952;2023-10-08T07:00:52;12.50;73.40
7447;DHT22;3765;47.962;7.952;2023-10-08T07:03:22;12.60;73.40
7447;DHT22;3765;47.962;7.952;2023-10-08T07:05:52;12.60;73.30
7447;DHT22;3765;47.962;7.952;2023-10-08T07:08:30;12.80;73.20
7447;DHT22;3765;47.962;7.952;2023-10-08T07:11:00;12.80;73.10
7447;DHT22;3765;47.962;7.952;2023-10-08T07:13:33;13.00;73.10
7447;DHT22;3765;47.962;7.952;2023-10-08T07:16:04;13.20;72.90
7447;DHT22;3765;47.962;7.952;2023-10-08T07:18:38;13.30;72.80
7447;DHT22;3765;47.962;7.952;2023-10-08T07:21:09;13.40;72.70
7447;DHT22;3765;47.962;7.952;2023-10-08T07:23:41;13.60;72.60
7447;DHT22;3765;47.962;7.952;2023-10-08T07:26:24;13.70;72.60
7447;DHT22;3765;47.962;7.952;2023-10-08T07:28:53;13.90;72.40
7447;DHT22;3765;47.962;7.952;2023-10-08T07:31:23;14.10;72.20
7447;DHT22;3765;47.962;7.952;2023-10-08T07:33:56;14.30;72.10
7447;DHT22;3765;47.962;7.952;2023-10-08T07:36:25;14.40;72.10
7447;DHT22;3765;47.962;7.952;2023-10-08T07:38:55;14.60;72.00
7447;DHT22;3765;47.962;7.952;2023-10-08T07:41:23;14.80;71.80
7447;DHT22;3765;47.962;7.952;2023-10-08T07:43:51;15.00;71.30
7447;DHT22;3765;47.962;7.952;2023-10-08T07:46:23;15.20;70.90
7447;DHT22;3765;47.962;7.952;2023-10-08T07:48:53;15.30;70.50
7447;DHT22;3765;47.962;7.952;2023-10-08T07:51:22;15.50;70.10
7447;DHT22;3765;47.962;7.952;2023-10-08T07:53:51;15.70;69.70
7447;DHT22;3765;47.962;7.952;2023-10-08T07:56:23;15.90;69.10
7447;DHT22;3765;47.962;7.952;2023-10-08T07:58:52;16.10;68.60
7447;DHT22;3765;47.962;7.952;2023-10-08T08:01:23;16.20;68.20
7447;DHT22;3765;47.962;7.952;2023-10-08T08:03:52;16.30;67.90
7447;DHT22;3765;47.962;7.952;2023-10-08T08:06:21;16.50;67.70
7447;DHT22;3765;47.962;7.952;2023-10-08T08:08:49;16.70;67.40
7447;DHT22;3765;47.962;7.952;2023-10-08T08:11:18;16.90;67.00
7447;DHT22;3765;47.962;7.952;2023-10-08T08:13:52;17.10;66.70
7447;DHT22;3765;47.962;7.952;2023-10-08T08:16:21;17.20;66.40
7447;DHT22;3765;47.962;7.952;2023-10-08T08:18:51;17.30;66.20
7447;DHT22;3765;47.962;7.952;2023-10-08T08:21:22;17.50;66.00
7447;DHT22;3765;47.962;7.952;2023-10-08T08:23:50;17.70;65.80
7447;DHT22;3765;47.962;7.952;2023-10-08T08:26:20;17.80;65.60
7447;DHT22;3765;47.962;7.952;2023-10-08T08:28:58;18.00;65.40
7447;DHT22;3765;47.962;7.952;2023-10-08T08:31:29;18.20;65.40
7447;DHT22;3765;47.962;7.952;2023-10-08T08:33:58;18.30;65.10
7447;DHT22;3765;47.962;7.952;2023-10-08T08:36:30;18.40;64.80
7447;DHT22;3765;47.962;7.952;2023-10-08T08:38:59;18.40;64.50
7447;DHT22;3765;47.962;7.952;2023-10-08T08:41:31;18.40;64.50
7447;DHT22;3765;47.962;7.952;2023-10-08T08:44:06;18.50;64.40
7447;DHT22;3765;47.962;7.952;2023-10-08T08:46:35;18.70;64.20
7447;DHT22;3765;47.962;7.952;2023-10-08T08:49:06;18.90;64.00
7447;DHT22;3765;47.962;7.952;2023-10-08T08:51:35;19.10;63.90
7447;DHT22;3765;47.962;7.952;2023-10-08T08:54:05;19.20;63.80
7447;DHT22;3765;47.962;7.952;2023-10-08T08:56:34;19.20;63.50
7447;DHT22;3765;47.962;7.952;2023-10-08T08:59:05;19.10;63.20
7447;DHT22;3765;47.962;7.952;2023-10-08T09:01:34;19.30;63.20
7447;DHT22;3765;47.962;7.952;2023-10-08T09:04:04;19.40;63.10
7447;DHT22;3765;47.962;7.952;2023-10-08T09:06:35;19.60;62.80
7447;DHT22;3765;47.962;7.952;2023-10-08T09:09:05;19.60;62.50
7447;DHT22;3765;47.962;7.952;2023-10-08T09:11:49;19.70;61.90
7447;DHT22;3765;47.962;7.952;2023-10-08T09:14:22;19.80;61.10
7447;DHT22;3765;47.962;7.952;2023-10-08T09:16:53;19.90;59.70
7447;DHT22;3765;47.962;7.952;2023-10-08T09:19:22;20.00;58.80
7447;DHT22;3765;47.962;7.952;2023-10-08T09:22:02;20.20;58.70
7447;DHT22;3765;47.962;7.952;2023-10-08T09:24:32;20.20;58.60
7447;DHT22;3765;47.962;7.952;2023-10-08T09:27:04;20.20;58.10
7447;DHT22;3765;47.962;7.952;2023-10-08T09:29:34;20.30;58.00
7447;DHT22;3765;47.962;7.952;2023-10-08T09:32:09;20.50;57.70
7447;DHT22;3765;47.962;7.952;2023-10-08T09:34:37;20.50;57.60
7447;DHT22;3765;47.962;7.952;2023-10-08T09:37:06;20.50;57.40
7447;DHT22;3765;47.962;7.952;2023-10-08T09:39:35;20.50;57.40
7447;DHT22;3765;47.962;7.952;2023-10-08T09:42:05;20.50;57.50
7447;DHT22;3765;47.962;7.952;2023-10-08T09:44:35;20.50;57.50
7447;DHT22;3765;47.962;7.952;2023-10-08T09:47:05;20.50;57.60
7447;DHT22;3765;47.962;7.952;2023-10-08T09:49:38;20.70;57.60
7447;DHT22;3765;47.962;7.952;2023-10-08T09:52:09;20.70;57.60
7447;DHT22;3765;47.962;7.952;2023-10-08T09:54:43;20.80;57.30
7447;DHT22;3765;47.962;7.952;2023-10-08T09:57:14;20.90;57.00
7447;DHT22;3765;47.962;7.952;2023-10-08T09:59:47;21.00;57.00
7447;DHT22;3765;47.962;7.952;2023-10-08T10:02:17;21.10;56.60
7447;DHT22;3765;47.962;7.952;2023-10-08T10:04:50;21.30;56.40
7447;DHT22;3765;47.962;7.952;2023-10-08T10:07:19;21.40;55.80
7447;DHT22;3765;47.962;7.952;2023-10-08T10:09:50;21.50;55.20
7447;DHT22;3765;47.962;7.952;2023-10-08T10:12:24;21.50;54.60
7447;DHT22;3765;47.962;7.952;2023-10-08T10:14:55;21.60;54.50
7447;DHT22;3765;47.962;7.952;2023-10-08T10:17:26;21.80;54.30
7447;DHT22;3765;47.962;7.952;2023-10-08T10:20:11;22.00;54.20
7447;DHT22;3765;47.962;7.952;2023-10-08T10:22:42;22.10;53.30
7447;DHT22;3765;47.962;7.952;2023-10-08T10:25:11;22.10;53.00
7447;DHT22;3765;47.962;7.952;2023-10-08T10:30:50;22.30;52.10
7447;DHT22;3765;47.962;7.952;2023-10-08T10:33:19;22.30;52.40
7447;DHT22;3765;47.962;7.952;2023-10-08T10:35:54;22.30;52.70
7447;DHT22;3765;47.962;7.952;2023-10-08T10:38:23;22.30;52.70
7447;DHT22;3765;47.962;7.952;2023-10-08T10:40:53;22.30;52.80
7447;DHT22;3765;47.962;7.952;2023-10-08T10:43:25;22.20;53.20
7447;DHT22;3765;47.962;7.952;2023-10-08T10:46:01;22.10;53.30
7447;DHT22;3765;47.962;7.952;2023-10-08T10:48:51;22.10;53.30
7447;DHT22;3765;47.962;7.952;2023-10-08T10:51:33;22.10;52.90
7447;DHT22;3765;47.962;7.952;2023-10-08T10:54:02;22.10;52.60
7447;DHT22;3765;47.962;7.952;2023-10-08T10:56:35;22.10;52.70
7447;DHT22;3765;47.962;7.952;2023-10-08T10:59:09;22.20;52.40
7447;DHT22;3765;47.962;7.952;2023-10-08T11:01:47;22.20;52.10
7447;DHT22;3765;47.962;7.952;2023-10-08T11:04:19;22.30;51.70
7447;DHT22;3765;47.962;7.952;2023-10-08T11:06:50;22.10;51.40
7447;DHT22;3765;47.962;7.952;2023-10-08T11:09:23;22.10;51.50
7447;DHT22;3765;47.962;7.952;2023-10-08T11:12:04;22.30;51.60
7447;DHT22;3765;47.962;7.952;2023-10-08T11:14:39;22.40;51.50
7447;DHT22;3765;47.962;7.952;2023-10-08T11:17:11;22.50;51.20
7447;DHT22;3765;47.962;7.952;2023-10-08T11:19:42;22.80;50.90
7447;DHT22;3765;47.962;7.952;2023-10-08T11:22:13;22.80;50.50
7447;DHT22;3765;47.962;7.952;2023-10-08T11:24:45;22.90;50.20
7447;DHT22;3765;47.962;7.952;2023-10-08T11:27:17;22.90;50.20
7447;DHT22;3765;47.962;7.952;2023-10-08T11:29:56;23.10;50.10
7447;DHT22;3765;47.962;7.952;2023-10-08T11:32:29;23.10;49.80
7447;DHT22;3765;47.962;7.952;2023-10-08T11:35:00;22.90;49.90
7447;DHT22;3765;47.962;7.952;2023-10-08T11:37:45;22.80;49.70
7447;DHT22;3765;47.962;7.952;2023-10-08T11:40:24;22.80;49.00
7447;DHT22;3765;47.962;7.952;2023-10-08T11:42:56;22.80;48.90
7447;DHT22;3765;47.962;7.952;2023-10-08T11:45:25;22.80;49.00
7447;DHT22;3765;47.962;7.952;2023-10-08T11:47:56;22.80;49.20
7447;DHT22;3765;47.962;7.952;2023-10-08T11:50:25;22.90;49.00
7447;DHT22;3765;47.962;7.952;2023-10-08T11:52:59;23.10;48.50
7447;DHT22;3765;47.962;7.952;2023-10-08T11:55:31;23.30;47.90
7447;DHT22;3765;47.962;7.952;2023-10-08T11:58:03;23.70;47.90
7447;DHT22;3765;47.962;7.952;2023-10-08T12:00:38;23.90;47.10
7447;DHT22;3765;47.962;7.952;2023-10-08T12:03:14;24.10;46.50
7447;DHT22;3765;47.962;7.952;2023-10-08T12:05:46;24.20;46.10
7447;DHT22;3765;47.962;7.952;2023-10-08T12:08:27;24.20;45.90
7447;DHT22;3765;47.962;7.952;2023-10-08T12:10:55;24.30;46.10
7447;DHT22;3765;47.962;7.952;2023-10-08T12:13:27;24.30;45.90
7447;DHT22;3765;47.962;7.952;2023-10-08T12:15:57;24.40;46.10
7447;DHT22;3765;47.962;7.952;2023-10-08T12:18:35;24.60;46.00
7447;DHT22;3765;47.962;7.952;2023-10-08T12:21:07;24.80;45.90
7447;DHT22;3765;47.962;7.952;2023-10-08T12:23:38;25.00;45.20
7447;DHT22;3765;47.962;7.952;2023-10-08T12:26:06;25.00;45.10
7447;DHT22;3765;47.962;7.952;2023-10-08T12:28:35;25.10;45.50
7447;DHT22;3765;47.962;7.952;2023-10-08T12:31:04;25.20;45.50
7447;DHT22;3765;47.962;7.952;2023-10-08T12:33:32;25.30;45.30
7447;DHT22;3765;47.962;7.952;2023-10-08T12:36:03;25.30;45.10
7447;DHT22;3765;47.962;7.952;2023-10-08T12:38:40;25.20;44.00
7447;DHT22;3765;47.962;7.952;2023-10-08T12:41:09;25.20;44.00
7447;DHT22;3765;47.962;7.952;2023-10-08T12:43:42;25.20;44.30
7447;DHT22;3765;47.962;7.952;2023-10-08T12:46:13;25.30;45.30
7447;DHT22;3765;47.962;7.952;2023-10-08T12:48:46;25.50;45.60
7447;DHT22;3765;47.962;7.952;2023-10-08T12:51:21;25.60;45.10
7447;DHT22;3765;47.962;7.952;2023-10-08T12:53:52;25.80;44.50
7447;DHT22;3765;47.962;7.952;2023-10-08T12:56:26;25.70;43.50
7447;DHT22;3765;47.962;7.952;2023-10-08T12:59:03;25.70;43.50
7447;DHT22;3765;47.962;7.952;2023-10-08T13:01:33;26.20;43.60
7447;DHT22;3765;47.962;7.952;2023-10-08T13:04:03;26.60;42.80
7447;DHT22;3765;47.962;7.952;2023-10-08T13:06:42;26.90;42.40
7447;DHT22;3765;47.962;7.952;2023-10-08T13:09:12;26.90;41.80
7447;DHT22;3765;47.962;7.952;2023-10-08T13:11:41;27.00;41.40
7447;DHT22;3765;47.962;7.952;2023-10-08T13:14:10;26.90;40.70
7447;DHT22;3765;47.962;7.952;2023-10-08T13:16:40;27.00;40.70
7447;DHT22;3765;47.962;7.952;2023-10-08T13:19:08;27.30;40.30
7447;DHT22;3765;47.962;7.952;2023-10-08T13:21:36;27.30;40.30
7447;DHT22;3765;47.962;7.952;2023-10-08T13:24:07;27.40;40.10
7447;DHT22;3765;47.962;7.952;2023-10-08T13:26:36;27.50;39.60
7447;DHT22;3765;47.962;7.952;2023-10-08T13:29:06;27.80;39.80
7447;DHT22;3765;47.962;7.952;2023-10-08T13:31:36;27.80;39.70
7447;DHT22;3765;47.962;7.952;2023-10-08T13:34:05;28.00;39.70
7447;DHT22;3765;47.962;7.952;2023-10-08T13:36:36;28.00;39.00
7447;DHT22;3765;47.962;7.952;2023-10-08T13:39:08;28.00;38.40
7447;DHT22;3765;47.962;7.952;2023-10-08T13:41:37;28.10;38.10
7447;DHT22;3765;47.962;7.952;2023-10-08T13:44:08;28.00;37.80
7447;DHT22;3765;47.962;7.952;2023-10-08T13:46:39;27.90;37.70
7447;DHT22;3765;47.962;7.952;2023-10-08T13:49:15;27.80;37.50
7447;DHT22;3765;47.962;7.952;2023-10-08T13:51:46;28.00;37.30
7447;DHT22;3765;47.962;7.952;2023-10-08T13:54:25;28.20;37.00
7447;DHT22;3765;47.962;7.952;2023-10-08T13:56:57;28.10;37.10
7447;DHT22;3765;47.962;7.952;2023-10-08T13:59:26;28.20;36.90
7447;DHT22;3765;47.962;7.952;2023-10-08T14:01:59;28.20;36.40
7447;DHT22;3765;47.962;7.952;2023-10-08T14:04:29;28.10;36.10
7447;DHT22;3765;47.962;7.952;2023-10-08T14:07:03;28.20;36.00
7447;DHT22;3765;47.962;7.952;2023-10-08T14:09:33;28.30;35.30
7447;DHT22;3765;47.962;7.952;2023-10-08T14:12:05;28.30;35.40
7447;DHT22;3765;47.962;7.952;2023-10-08T14:14:34;28.30;35.80
7447;DHT22;3765;47.962;7.952;2023-10-08T14:17:03;28.30;35.40
7447;DHT22;3765;47.962;7.952;2023-10-08T14:19:35;28.40;35.20
7447;DHT22;3765;47.962;7.952;2023-10-08T14:22:07;28.50;35.00
7447;DHT22;3765;47.962;7.952;2023-10-08T14:24:43;28.50;34.90
7447;DHT22;3765;47.962;7.952;2023-10-08T14:27:12;28.60;34.90
7447;DHT22;3765;47.962;7.952;2023-10-08T14:29:43;28.50;34.70
7447;DHT22;3765;47.962;7.952;2023-10-08T14:32:13;28.60;34.30
7447;DHT22;3765;47.962;7.952;2023-10-08T14:34:44;28.60;34.10
7447;DHT22;3765;47.962;7.952;2023-10-08T14:37:30;28.60;33.60
7447;DHT22;3765;47.962;7.952;2023-10-08T14:40:17;28.40;33.90
7447;DHT22;3765;47.962;7.952;2023-10-08T14:43:03;28.10;34.40
7447;DHT22;3765;47.962;7.952;2023-10-08T14:45:34;28.00;34.30
7447;DHT22;3765;47.962;7.952;2023-10-08T14:48:04;27.90;35.00
7447;DHT22;3765;47.962;7.952;2023-10-08T14:50:39;27.80;35.70
7447;DHT22;3765;47.962;7.952;2023-10-08T14:53:09;27.60;36.50
7447;DHT22;3765;47.962;7.952;2023-10-08T14:55:39;27.50;36.90
7447;DHT22;3765;47.962;7.952;2023-10-08T14:58:07;27.40;37.50
7447;DHT22;3765;47.962;7.952;2023-10-08T15:00:38;27.30;38.00
7447;DHT22;3765;47.962;7.952;2023-10-08T15:03:09;27.40;38.30
7447;DHT22;3765;47.962;7.952;2023-10-08T15:05:39;27.50;38.60
7447;DHT22;3765;47.962;7.952;2023-10-08T15:08:07;27.50;38.80
7447;DHT22;3765;47.962;7.952;2023-10-08T15:10:39;27.30;39.00
7447;DHT22;3765;47.962;7.952;2023-10-08T15:13:08;27.10;39.40
7447;DHT22;3765;47.962;7.952;2023-10-08T15:15:36;27.00;39.50
7447;DHT22;3765;47.962;7.952;2023-10-08T15:18:07;27.00;39.60
7447;DHT22;3765;47.962;7.952;2023-10-08T15:20:39;27.00;39.70
7447;DHT22;3765;47.962;7.952;2023-10-08T15:23:08;26.80;39.90
7447;DHT22;3765;47.962;7.952;2023-10-08T15:25:40;26.40;40.10
7447;DHT22;3765;47.962;7.952;2023-10-08T15:28:09;26.20;40.50
7447;DHT22;3765;47.962;7.952;2023-10-08T15:30:37;25.80;40.90
7447;DHT22;3765;47.962;7.952;2023-10-08T15:33:06;25.40;41.20
7447;DHT22;3765;47.962;7.952;2023-10-08T15:35:34;25.10;41.60
7447;DHT22;3765;47.962;7.952;2023-10-08T15:38:03;24.70;42.00
7447;DHT22;3765;47.962;7.952;2023-10-08T15:40:31;24.60;42.20
7447;DHT22;3765;47.962;7.952;2023-10-08T15:43:02;24.50;42.60
7447;DHT22;3765;47.962;7.952;2023-10-08T15:45:31;24.40;43.00
7447;DHT22;3765;47.962;7.952;2023-10-08T15:47:59;24.40;43.30
7447;DHT22;3765;47.962;7.952;2023-10-08T15:50:27;24.30;43.60
7447;DHT22;3765;47.962;7.952;2023-10-08T15:53:00;24.00;43.80
7447;DHT22;3765;47.962;7.952;2023-10-08T15:55:28;23.80;44.10
7447;DHT22;3765;47.962;7.952;2023-10-08T15:57:56;23.70;44.20
7447;DHT22;3765;47.962;7.952;2023-10-08T16:00:26;23.40;44.40
7447;DHT22;3765;47.962;7.952;2023-10-08T16:02:55;23.10;44.70
7447;DHT22;3765;47.962;7.952;2023-10-08T16:05:23;22.90;45.10
7447;DHT22;3765;47.962;7.952;2023-10-08T16:07:51;22.70;45.40
7447;DHT22;3765;47.962;7.952;2023-10-08T16:10:25;22.60;45.70
7447;DHT22;3765;47.962;7.952;2023-10-08T16:12:54;22.60;45.90
7447;DHT22;3765;47.962;7.952;2023-10-08T16:15:23;22.40;46.20
7447;DHT22;3765;47.962;7.952;2023-10-08T16:17:53;22.30;46.40
7447;DHT22;3765;47.962;7.952;2023-10-08T16:20:23;22.00;46.80
7447;DHT22;3765;47.962;7.952;2023-10-08T16:22:52;21.70;47.10
7447;DHT22;3765;47.962;7.952;2023-10-08T16:25:21;21.60;47.50
7447;DHT22;3765;47.962;7.952;2023-10-08T16:27:51;21.40;47.90
7447;DHT22;3765;47.962;7.952;2023-10-08T16:30:20;21.20;48.20
7447;DHT22;3765;47.962;7.952;2023-10-08T16:32:52;21.00;48.60
7447;DHT22;3765;47.962;7.952;2023-10-08T16:35:21;20.80;49.10
7447;DHT22;3765;47.962;7.952;2023-10-08T16:37:51;20.70;49.40
7447;DHT22;3765;47.962;7.952;2023-10-08T16:40:19;20.60;49.70
7447;DHT22;3765;47.962;7.952;2023-10-08T16:42:48;20.40;49.60